Time;durP1;ratioP1;P1;durP2;ratioP2;P2;SDS_P1;SDS_P2;PMS_P1;PMS_P2;Temp;Humidity;BMP_temperature;BMP_pressure;BME280_temperature;BME280_humidity;BME280_pressure;Samples;Min_cycle;Max_cycle;Signal;HPM_P1;HPM_P2
2021/12/04 00:02:04;;;;;;;3.87;3.10;;;5.30;99.90;;;;;;5072443;28;20416;-71
2021/12/04 00:04:32;;;;;;;3.13;2.93;;;5.20;99.90;;;;;;5072757;28;20455;-71
2021/12/04 00:06:58;;;;;;;4.00;3.60;;;5.20;99.90;;;;;;5055751;28;20595;-71
2021/12/04 00:09:24;;;;;;;3.67;3.37;;;5.10;99.90;;;;;;5073648;28;20435;-71
2021/12/04 00:11:55;;;;;;;4.07;3.77;;;5.10;99.90;;;;;;5073366;28;20176;-71
2021/12/04 00:14:21;;;;;;;4.20;3.80;;;5.10;99.90;;;;;;5072385;28;20447;-71
2021/12/04 00:16:47;;;;;;;5.00;3.90;;;5.00;99.90;;;;;;5073553;28;20465;-71
2021/12/04 00:19:13;;;;;;;3.60;3.30;;;5.10;99.90;;;;;;5074047;28;20174;-71
2021/12/04 00:21:38;;;;;;;4.00;3.60;;;5.10;99.90;;;;;;5073496;28;20472;-71
2021/12/04 00:24:04;;;;;;;4.33;3.93;;;5.00;99.90;;;;;;5072695;28;20197;-71
2021/12/04 00:26:30;;;;;;;4.60;4.30;;;5.10;99.90;;;;;;5072835;28;20216;-71
2021/12/04 00:28:56;;;;;;;4.37;3.97;;;5.00;99.90;;;;;;5055940;28;20404;-71
2021/12/04 00:31:21;;;;;;;4.40;4.00;;;5.00;99.90;;;;;;5074468;28;20169;-71
2021/12/04 00:33:48;;;;;;;3.80;3.50;;;5.00;99.90;;;;;;5073837;28;20188;-72
2021/12/04 00:36:33;;;;;;;4.33;4.03;;;5.10;99.90;;;;;;5073274;28;20217;-71
2021/12/04 00:49:55;;;;;;;3.57;3.27;;;5.10;99.90;;;;;;5073948;28;20447;-71
2021/12/04 00:52:21;;;;;;;5.03;4.53;;;5.10;99.90;;;;;;5074211;28;20904;-72
2021/12/04 00:54:47;;;;;;;4.30;4.00;;;5.10;99.90;;;;;;5072837;28;20177;-71
2021/12/04 00:57:13;;;;;;;4.03;3.73;;;5.20;99.90;;;;;;5073808;28;20169;-71
2021/12/04 00:59:39;;;;;;;3.93;3.63;;;5.10;99.90;;;;;;5073831;28;20416;-71
2021/12/04 01:02:05;;;;;;;4.20;3.80;;;5.10;99.90;;;;;;5074355;28;20424;-72
2021/12/04 01:04:31;;;;;;;4.23;3.90;;;5.20;99.90;;;;;;5073387;28;20254;-70
2021/12/04 01:06:57;;;;;;;3.87;3.57;;;5.20;99.90;;;;;;5073209;28;20424;-70
2021/12/04 01:09:24;;;;;;;3.70;3.40;;;5.30;99.90;;;;;;5073124;28;20442;-71
2021/12/04 01:11:52;;;;;;;3.50;3.20;;;5.30;99.90;;;;;;5073410;28;20201;-71
2021/12/04 01:14:20;;;;;;;3.70;3.40;;;5.30;99.90;;;;;;5072257;28;20414;-71
2021/12/04 01:16:47;;;;;;;3.70;3.40;;;5.30;99.90;;;;;;5072977;28;20492;-72
2021/12/04 01:19:15;;;;;;;4.03;3.63;;;5.30;99.90;;;;;;5073247;28;20408;-71
2021/12/04 01:21:42;;;;;;;4.43;3.73;;;5.30;99.90;;;;;;5074157;28;20419;-72
2021/12/04 01:24:08;;;;;;;4.60;4.20;;;5.30;99.90;;;;;;5076371;28;20455;-71
2021/12/04 01:26:33;;;;;;;4.47;4.07;;;5.40;99.90;;;;;;5076222;28;20837;-71
2021/12/04 01:28:59;;;;;;;3.80;3.50;;;5.30;99.90;;;;;;5076998;28;20177;-71
2021/12/04 01:31:24;;;;;;;4.60;4.20;;;5.40;99.90;;;;;;5076800;28;20170;-71
2021/12/04 01:33:50;;;;;;;3.90;3.60;;;5.40;99.90;;;;;;5076609;28;20188;-71
2021/12/04 01:36:16;;;;;;;3.80;3.50;;;5.40;99.90;;;;;;5075959;28;20759;-72
2021/12/04 01:38:42;;;;;;;3.70;3.40;;;5.50;99.90;;;;;;5076881;28;20473;-71
2021/12/04 01:41:08;;;;;;;4.37;4.07;;;5.40;99.90;;;;;;5077044;28;20177;-71
2021/12/04 01:43:34;;;;;;;3.93;3.63;;;5.30;99.90;;;;;;5077038;28;21188;-71
2021/12/04 01:45:59;;;;;;;4.00;3.70;;;5.40;99.90;;;;;;5075795;28;20428;-71
2021/12/04 01:48:25;;;;;;;3.63;3.33;;;5.40;99.90;;;;;;5074934;28;20184;-71
2021/12/04 01:50:52;;;;;;;3.80;3.50;;;5.40;99.90;;;;;;5076626;28;20223;-71
2021/12/04 01:53:18;;;;;;;4.60;4.20;;;5.40;99.90;;;;;;5076821;28;20428;-72
2021/12/04 01:55:44;;;;;;;4.60;4.20;;;5.40;99.90;;;;;;5075825;28;20463;-72
2021/12/04 01:58:11;;;;;;;5.00;4.50;;;5.40;99.90;;;;;;5070045;28;20462;-71
2021/12/04 02:00:39;;;;;;;3.93;3.63;;;5.50;99.90;;;;;;5071351;28;20259;-72
2021/12/04 02:03:08;;;;;;;3.97;3.43;;;5.50;99.90;;;;;;5076065;28;20506;-71
2021/12/04 02:05:38;;;;;;;4.70;4.33;;;5.50;99.90;;;;;;5076910;28;20427;-72
2021/12/04 02:08:08;;;;;;;4.10;3.80;;;5.50;99.90;;;;;;5077418;28;20779;-72
2021/12/04 02:10:34;;;;;;;5.80;4.40;;;5.40;99.90;;;;;;5078126;28;20431;-71
2021/12/04 02:13:00;;;;;;;4.23;3.83;;;5.50;99.90;;;;;;5077622;28;20415;-71
2021/12/04 02:15:26;;;;;;;4.50;4.10;;;5.50;99.90;;;;;;5080776;28;20923;-72
2021/12/04 02:17:52;;;;;;;4.07;3.77;;;5.50;99.90;;;;;;5078441;28;20224;-72
2021/12/04 02:20:21;;;;;;;3.90;3.50;;;5.40;99.90;;;;;;5077390;28;20416;-72
2021/12/04 02:22:47;;;;;;;4.30;3.90;;;5.50;99.90;;;;;;5078415;28;20546;-72
2021/12/04 02:25:14;;;;;;;4.37;3.97;;;5.40;99.90;;;;;;5076236;28;20474;-71
2021/12/04 02:27:40;;;;;;;4.80;4.27;;;5.50;99.90;;;;;;5077894;28;20438;-72
2021/12/04 02:30:16;;;;;;;5.13;4.47;;;5.40;99.90;;;;;;5075903;28;20427;-71
2021/12/04 02:32:42;;;;;;;4.90;4.50;;;5.20;99.90;;;;;;5077487;28;20423;-71
2021/12/04 02:35:10;;;;;;;4.43;4.10;;;5.20;99.90;;;;;;5076271;28;20431;-71
2021/12/04 02:37:36;;;;;;;4.73;4.20;;;5.20;99.90;;;;;;5076839;28;20423;-71
2021/12/04 02:40:11;;;;;;;4.80;4.40;;;5.10;99.90;;;;;;5075055;28;20412;-71
2021/12/04 02:42:37;;;;;;;4.40;4.00;;;5.20;99.90;;;;;;5076589;28;20767;-71
2021/12/04 02:45:06;;;;;;;5.23;4.80;;;5.30;99.90;;;;;;5076610;28;20451;-71
2021/12/04 02:47:32;;;;;;;4.20;3.90;;;5.20;99.90;;;;;;5075430;28;20402;-72
2021/12/04 02:49:58;;;;;;;4.40;4.00;;;5.20;99.90;;;;;;5076252;28;20748;-72
2021/12/04 02:52:24;;;;;;;4.67;4.27;;;5.20;99.90;;;;;;5075757;28;20170;-71
2021/12/04 02:54:51;;;;;;;4.63;4.23;;;5.20;99.90;;;;;;5075226;28;20408;-72
2021/12/04 02:57:20;;;;;;;4.80;4.40;;;5.10;99.90;;;;;;5075839;28;20439;-71
2021/12/04 02:59:46;;;;;;;4.53;4.13;;;5.00;99.90;;;;;;5075284;28;20509;-71
2021/12/04 03:02:21;;;;;;;5.13;4.63;;;5.00;99.90;;;;;;5074356;28;20416;-71
2021/12/04 03:04:51;;;;;;;5.97;5.37;;;5.00;99.90;;;;;;5075510;28;20646;-71
2021/12/04 03:07:18;;;;;;;4.53;4.13;;;4.90;99.90;;;;;;5074970;28;20417;-71
2021/12/04 03:09:44;;;;;;;4.80;4.40;;;4.90;99.90;;;;;;5075190;28;20438;-71
2021/12/04 03:12:10;;;;;;;4.97;4.57;;;4.90;99.90;;;;;;5073968;28;20405;-71
2021/12/04 03:14:37;;;;;;;5.40;4.90;;;4.90;99.90;;;;;;5075805;28;20614;-71
2021/12/04 03:17:05;;;;;;;5.47;4.97;;;5.00;99.90;;;;;;5075426;28;20795;-71
2021/12/04 03:19:30;;;;;;;5.37;4.97;;;5.10;99.90;;;;;;5074958;28;20465;-71
2021/12/04 03:21:56;;;;;;;4.70;4.30;;;5.10;99.90;;;;;;5075639;28;20768;-71
2021/12/04 03:24:23;;;;;;;4.70;4.37;;;5.20;99.90;;;;;;5074570;28;20247;-71
2021/12/04 03:26:50;;;;;;;4.50;4.10;;;5.30;99.90;;;;;;5061717;22;20698;-70
2021/12/04 03:29:20;;;;;;;7.47;4.93;;;5.30;99.90;;;;;;5020270;28;20421;-71
2021/12/04 03:40:08;;;;;;;7.13;4.30;;;5.40;99.90;;;;;;5036395;28;20393;-71
2021/12/04 03:42:35;;;;;;;4.40;4.00;;;5.40;99.90;;;;;;5016519;28;20406;-71
2021/12/04 03:45:02;;;;;;;5.87;4.70;;;5.40;99.90;;;;;;5033857;28;20459;-71
2021/12/04 03:47:30;;;;;;;4.37;3.97;;;5.30;99.90;;;;;;5016514;28;20445;-71
2021/12/04 03:49:55;;;;;;;5.80;5.13;;;5.30;99.90;;;;;;5016613;28;20409;-73
2021/12/04 03:52:21;;;;;;;4.93;4.50;;;5.30;99.90;;;;;;5034657;28;20413;-70
2021/12/04 03:54:47;;;;;;;4.23;3.93;;;5.20;99.90;;;;;;5034181;28;20532;-70
2021/12/04 03:57:12;;;;;;;4.50;4.10;;;5.30;99.90;;;;;;5034016;28;20710;-70
2021/12/04 03:59:40;;;;;;;4.63;4.23;;;5.40;99.90;;;;;;5034761;28;20174;-70
2021/12/04 04:02:09;;;;;;;4.40;4.00;;;5.40;99.90;;;;;;5035642;28;20177;-71
2021/12/04 04:04:35;;;;;;;5.17;4.67;;;5.40;99.90;;;;;;5036095;28;20545;-71
2021/12/04 04:07:01;;;;;;;4.43;4.03;;;5.30;99.90;;;;;;5035522;28;20445;-71
2021/12/04 04:09:27;;;;;;;4.50;4.10;;;5.30;99.90;;;;;;5015828;28;20440;-70
2021/12/04 04:11:53;;;;;;;4.27;3.97;;;5.20;99.90;;;;;;5016725;28;20551;-70
2021/12/04 04:14:19;;;;;;;4.70;4.30;;;5.10;99.90;;;;;;5034556;28;20420;-70
2021/12/04 04:16:44;;;;;;;4.40;4.00;;;5.10;99.90;;;;;;5034030;28;20194;-71
2021/12/04 04:19:11;;;;;;;4.20;3.80;;;5.10;99.90;;;;;;5034670;28;20180;-70
2021/12/04 04:21:42;;;;;;;5.10;4.50;;;5.00;99.90;;;;;;5034768;28;20171;-70
2021/12/04 04:24:13;;;;;;;5.40;4.90;;;4.90;99.90;;;;;;5034515;28;20455;-71
2021/12/04 04:26:40;;;;;;;5.87;4.87;;;4.80;99.90;;;;;;5035869;28;20438;-70
2021/12/04 04:29:07;;;;;;;4.83;4.43;;;4.80;99.90;;;;;;5019211;28;20430;-71
2021/12/04 04:31:34;;;;;;;5.70;4.80;;;4.90;99.90;;;;;;5034691;28;20440;-70
2021/12/04 04:34:05;;;;;;;4.90;4.50;;;4.90;99.90;;;;;;5037594;28;20432;-70
2021/12/04 04:39:23;;;;;;;5.00;4.60;;;4.90;99.90;;;;;;5034214;28;20500;-70
2021/12/04 04:58:41;;;;;;;5.00;4.47;;;5.00;99.90;;;;;;5033600;28;20478;-70
2021/12/04 05:12:26;;;;;;;5.30;4.80;;;5.00;99.90;;;;;;5030599;28;20425;-71
2021/12/04 05:14:55;;;;;;;5.17;4.40;;;5.10;99.90;;;;;;5045456;28;20427;-71
2021/12/04 05:17:41;;;;;;;7.13;4.90;;;5.20;99.90;;;;;;5025941;28;20441;-71
2021/12/04 05:20:10;;;;;;;4.77;4.27;;;5.20;99.90;;;;;;5016779;28;20499;-71
2021/12/04 05:22:36;;;;;;;4.77;4.27;;;5.20;99.90;;;;;;5014975;28;20434;-70
2021/12/04 05:25:02;;;;;;;4.67;4.27;;;5.20;99.90;;;;;;5033983;28;20456;-70
2021/12/04 05:27:27;;;;;;;4.57;4.17;;;5.20;99.90;;;;;;5033425;28;20210;-71
2021/12/04 05:29:53;;;;;;;4.10;3.80;;;5.20;99.90;;;;;;5033103;28;20503;-70
2021/12/04 05:32:18;;;;;;;6.53;4.00;;;5.10;99.90;;;;;;5033250;28;20191;-70
2021/12/04 05:34:44;;;;;;;5.37;4.87;;;5.10;99.90;;;;;;5033190;28;20183;-70
2021/12/04 05:37:10;;;;;;;4.40;4.00;;;5.20;99.90;;;;;;5031380;28;20698;-70
2021/12/04 05:39:35;;;;;;;5.10;4.70;;;5.20;99.90;;;;;;5033321;28;20183;-70
2021/12/04 05:42:01;;;;;;;5.37;4.87;;;5.20;99.90;;;;;;5032452;28;20186;-70
2021/12/04 05:44:29;;;;;;;4.50;4.10;;;5.30;99.90;;;;;;5034327;28;20207;-70
2021/12/04 05:47:00;;;;;;;4.80;4.40;;;5.30;99.90;;;;;;5033828;28;20445;-70
2021/12/04 05:49:35;;;;;;;4.50;4.10;;;5.30;99.90;;;;;;5033220;28;20386;-70
2021/12/04 05:52:20;;;;;;;4.27;3.93;;;5.30;99.90;;;;;;5016909;28;20417;-70
2021/12/04 05:55:07;;;;;;;4.37;3.97;;;5.40;99.90;;;;;;5021176;28;20436;-70
2021/12/04 05:57:31;;;;;;;4.60;4.20;;;5.50;99.90;;;;;;5033365;28;20468;-70
2021/12/04 05:59:57;;;;;;;5.00;4.50;;;5.50;99.90;;;;;;5033981;28;20417;-70
2021/12/04 06:02:23;;;;;;;4.50;4.10;;;5.50;99.90;;;;;;5033631;28;20532;-70
2021/12/04 06:04:48;;;;;;;4.17;3.83;;;5.40;99.90;;;;;;5033564;28;20445;-70
2021/12/04 06:07:14;;;;;;;4.93;4.53;;;5.40;99.90;;;;;;5033143;28;20273;-71
2021/12/04 06:09:39;;;;;;;4.10;3.80;;;5.20;99.90;;;;;;5034224;28;20182;-71
2021/12/04 06:12:07;;;;;;;4.80;4.30;;;5.30;99.90;;;;;;5038989;28;20198;-71
2021/12/04 06:14:34;;;;;;;4.87;4.47;;;5.40;99.90;;;;;;5021104;28;20666;-70
2021/12/04 06:17:00;;;;;;;7.03;4.10;;;5.50;99.90;;;;;;5036020;28;20452;-70
2021/12/04 06:22:37;;;;;;;4.00;3.70;;;5.60;99.90;;;;;;5038326;28;20413;-70
2021/12/04 06:24:56;;;;;;;7.20;4.23;;;5.70;99.90;;;;;;5035643;28;21024;-70
2021/12/04 06:27:21;;;;;;;4.27;3.97;;;5.70;99.90;;;;;;5034941;28;20457;-70
2021/12/04 06:29:47;;;;;;;3.80;3.50;;;5.70;99.90;;;;;;5036115;28;20181;-70
2021/12/04 06:32:13;;;;;;;4.13;3.73;;;5.80;99.90;;;;;;5035828;28;20604;-70
2021/12/04 06:34:38;;;;;;;5.20;4.00;;;5.80;99.90;;;;;;5033827;28;20186;-70
2021/12/04 06:37:04;;;;;;;4.90;4.50;;;5.70;99.90;;;;;;5034916;28;20671;-70
2021/12/04 06:39:29;;;;;;;4.30;3.90;;;5.60;99.90;;;;;;5035029;28;20183;-70
2021/12/04 06:41:55;;;;;;;5.10;4.60;;;5.50;99.90;;;;;;5035345;28;20187;-70
2021/12/04 06:44:20;;;;;;;4.53;4.13;;;5.50;99.90;;;;;;5035303;28;20550;-70
2021/12/04 06:46:46;;;;;;;5.03;4.53;;;5.50;99.90;;;;;;5034957;28;20199;-71
2021/12/04 06:49:25;;;;;;;5.67;4.37;;;5.60;99.90;;;;;;5035026;28;20171;-70
2021/12/04 06:51:55;;;;;;;4.30;3.90;;;5.70;99.90;;;;;;5034998;28;20163;-70
2021/12/04 06:54:25;;;;;;;5.33;4.83;;;5.70;99.90;;;;;;5034694;28;20401;-71
2021/12/04 06:56:50;;;;;;;4.40;4.00;;;5.70;99.90;;;;;;5034229;28;20444;-71
2021/12/04 06:59:22;;;;;;;4.83;4.43;;;5.80;99.90;;;;;;5034559;28;20481;-71
2021/12/04 07:01:48;;;;;;;5.10;4.60;;;5.80;99.90;;;;;;5018668;28;20202;-69
2021/12/04 07:04:16;;;;;;;4.90;4.33;;;5.80;99.90;;;;;;5034557;28;20966;-70
2021/12/04 07:06:42;;;;;;;4.47;4.07;;;5.80;99.90;;;;;;5016679;28;20563;-69
2021/12/04 07:09:08;;;;;;;4.43;4.03;;;5.90;99.90;;;;;;5034796;28;20484;-70
2021/12/04 07:11:34;;;;;;;5.10;4.60;;;5.90;99.90;;;;;;5017171;28;20171;-70
2021/12/04 07:14:00;;;;;;;5.83;5.23;;;5.90;99.90;;;;;;5034322;28;20440;-69
2021/12/04 07:16:26;;;;;;;5.10;4.60;;;5.90;99.90;;;;;;5015899;28;20202;-70
2021/12/04 07:18:52;;;;;;;5.37;4.87;;;5.90;99.90;;;;;;5034568;28;20413;-70
2021/12/04 07:21:18;;;;;;;5.00;4.60;;;5.90;99.90;;;;;;5034141;28;20436;-70
2021/12/04 07:23:43;;;;;;;5.37;4.87;;;5.90;99.90;;;;;;5038877;28;20225;-70
2021/12/04 07:26:09;;;;;;;7.07;6.37;;;5.90;99.90;;;;;;5038881;28;20514;-70
2021/12/04 07:28:36;;;;;;;6.00;5.40;;;5.90;99.90;;;;;;5038118;28;20167;-70
2021/12/04 07:31:02;;;;;;;6.20;5.60;;;5.90;99.90;;;;;;5036499;28;20178;-71
2021/12/04 07:33:28;;;;;;;5.40;4.63;;;5.90;99.90;;;;;;5036538;28;20402;-71
2021/12/04 07:35:54;;;;;;;5.90;5.40;;;5.90;99.90;;;;;;5018369;28;20449;-71
2021/12/04 07:38:20;;;;;;;6.03;4.97;;;5.90;99.90;;;;;;5018145;28;20171;-72
2021/12/04 07:40:46;;;;;;;5.33;4.83;;;5.90;99.90;;;;;;5035928;28;20982;-70
2021/12/04 07:43:12;;;;;;;5.93;5.43;;;5.80;99.90;;;;;;5034841;28;20181;-70
2021/12/04 07:45:38;;;;;;;5.67;5.17;;;5.80;99.90;;;;;;5034884;28;20465;-70
2021/12/04 07:48:03;;;;;;;6.00;5.40;;;5.70;99.90;;;;;;5035442;28;20421;-70
2021/12/04 07:50:30;;;;;;;6.67;6.03;;;5.70;99.90;;;;;;5036130;28;20222;-71
2021/12/04 07:52:57;;;;;;;6.33;5.77;;;5.70;99.90;;;;;;5036868;28;20182;-71
2021/12/04 07:55:24;;;;;;;6.10;5.60;;;5.60;99.90;;;;;;5035587;28;20492;-71
2021/12/04 07:57:50;;;;;;;5.77;5.27;;;5.70;99.90;;;;;;5035036;28;20409;-71
2021/12/04 08:00:18;;;;;;;6.93;6.20;;;5.70;99.90;;;;;;5033654;28;20965;-71
2021/12/04 08:02:44;;;;;;;6.90;6.23;;;5.70;99.90;;;;;;5042555;28;20257;-71
2021/12/04 08:05:11;;;;;;;6.30;5.70;;;5.60;99.90;;;;;;5035765;28;20533;-71
2021/12/04 08:07:38;;;;;;;6.27;5.67;;;5.50;99.90;;;;;;5053813;28;20415;-71
2021/12/04 08:10:05;;;;;;;6.40;5.80;;;5.50;99.90;;;;;;5028635;28;20412;-71
2021/12/04 08:12:30;;;;;;;6.80;6.00;;;5.50;99.90;;;;;;5034451;28;20445;-71
2021/12/04 08:14:56;;;;;;;6.17;5.50;;;5.50;99.90;;;;;;5034498;28;20934;-70
2021/12/04 08:17:21;;;;;;;6.90;6.20;;;5.50;99.90;;;;;;5032329;28;20190;-70
2021/12/04 08:19:47;;;;;;;7.20;6.50;;;5.40;99.90;;;;;;5050440;28;20185;-70
2021/12/04 08:22:13;;;;;;;8.77;7.00;;;5.40;99.90;;;;;;5052531;28;20622;-70
2021/12/04 08:24:40;;;;;;;6.40;5.80;;;5.40;99.90;;;;;;5046466;28;20202;-70
2021/12/04 08:27:08;;;;;;;7.40;6.63;;;5.40;99.90;;;;;;5031217;28;20586;-69
2021/12/04 08:29:33;;;;;;;8.00;6.77;;;5.40;99.90;;;;;;5031613;28;20421;-70
2021/12/04 08:31:59;;;;;;;7.60;6.83;;;5.30;99.90;;;;;;5032203;28;20414;-70
2021/12/04 08:34:25;;;;;;;7.03;6.23;;;5.20;99.90;;;;;;5032568;28;20171;-70
2021/12/04 08:36:52;;;;;;;6.67;5.97;;;5.30;99.90;;;;;;5048950;28;20201;-70
2021/12/04 08:39:18;;;;;;;7.53;6.70;;;5.20;99.90;;;;;;5035015;28;20189;-71
2021/12/04 08:41:44;;;;;;;8.73;7.83;;;5.20;99.90;;;;;;5038607;28;20421;-69
2021/12/04 08:44:09;;;;;;;8.07;7.20;;;5.10;99.90;;;;;;5034334;28;20471;-70
2021/12/04 08:46:37;;;;;;;6.87;6.20;;;5.10;99.90;;;;;;5032712;28;20195;-70
2021/12/04 08:49:04;;;;;;;7.80;6.63;;;5.10;99.90;;;;;;5033070;28;20651;-70
2021/12/04 08:51:30;;;;;;;7.23;6.53;;;5.10;99.90;;;;;;5032350;28;20444;-70
2021/12/04 08:53:56;;;;;;;8.10;6.67;;;5.10;99.90;;;;;;5033984;28;20712;-70
2021/12/04 08:56:22;;;;;;;8.37;6.40;;;5.10;99.90;;;;;;5033300;28;20922;-69
2021/12/04 08:58:48;;;;;;;6.70;5.90;;;5.10;99.90;;;;;;5016584;28;20504;-69
2021/12/04 09:01:24;;;;;;;7.80;6.97;;;5.20;99.90;;;;;;5015479;28;20259;-69
2021/12/04 09:03:54;;;;;;;8.10;6.57;;;5.20;99.90;;;;;;5015570;28;20194;-69
2021/12/04 09:06:20;;;;;;;5.67;5.17;;;5.20;99.90;;;;;;5033778;28;20436;-72
2021/12/04 09:08:46;;;;;;;7.60;6.17;;;5.30;99.90;;;;;;5034401;28;20778;-70
2021/12/04 09:11:35;;;;;;;6.87;6.27;;;5.30;99.90;;;;;;5052921;28;20412;-69
2021/12/04 09:14:01;;;;;;;6.47;5.87;;;5.40;99.90;;;;;;5034295;28;20516;-69
2021/12/04 09:16:27;;;;;;;6.97;6.27;;;5.50;99.90;;;;;;5033369;28;20421;-69
2021/12/04 09:18:55;;;;;;;6.80;6.10;;;5.50;99.90;;;;;;5032025;28;20436;-70
2021/12/04 09:21:22;;;;;;;6.33;5.40;;;5.60;99.90;;;;;;5031208;28;20249;-70
2021/12/04 09:23:53;;;;;;;7.10;5.90;;;5.70;99.90;;;;;;5030016;28;20552;-70
2021/12/04 09:26:35;;;;;;;6.70;6.00;;;5.70;99.90;;;;;;5056815;22;20824;-70
2021/12/04 09:29:14;;;;;;;5.60;5.10;;;5.90;99.90;;;;;;5003392;28;20430;-71
2021/12/04 10:12:36;;;;;;;4.80;4.40;;;7.30;99.90;;;;;;5034031;28;20799;-72
2021/12/04 10:23:36;;;;;;;4.10;3.80;;;7.30;99.90;;;;;;5034194;28;20471;-71
2021/12/04 10:34:35;;;;;;;4.53;4.13;;;7.20;99.90;;;;;;5033722;28;20583;-71
2021/12/04 10:37:09;;;;;;;4.50;4.10;;;7.20;99.90;;;;;;5028618;28;20475;-71
2021/12/04 10:39:35;;;;;;;4.30;3.93;;;7.20;99.90;;;;;;5033707;28;20413;-71
2021/12/04 10:42:04;;;;;;;6.13;5.63;;;7.30;99.90;;;;;;5033181;28;20492;-71
2021/12/04 10:44:30;;;;;;;4.67;4.27;;;7.30;99.90;;;;;;5033738;28;21017;-72
2021/12/04 10:47:05;;;;;;;4.30;4.00;;;7.40;99.90;;;;;;5033389;28;20522;-71
2021/12/04 10:49:39;;;;;;;4.70;4.30;;;7.40;99.90;;;;;;5033406;28;20471;-71
2021/12/04 10:52:10;;;;;;;4.73;4.33;;;7.40;99.90;;;;;;5027070;28;20856;-72
2021/12/04 10:54:39;;;;;;;5.10;4.60;;;7.40;99.90;;;;;;5033381;28;20500;-72
2021/12/04 10:57:36;;;;;;;4.93;4.53;;;7.40;99.90;;;;;;5032330;28;20434;-72
2021/12/04 11:00:12;;;;;;;5.83;5.33;;;7.30;99.90;;;;;;5032416;28;20430;-70
2021/12/04 11:02:43;;;;;;;5.07;4.57;;;7.20;99.90;;;;;;5032412;28;20932;-71
2021/12/04 11:25:14;;;;;;;4.77;4.37;;;7.20;99.90;;;;;;5026321;28;20869;-71
2021/12/04 11:36:10;;;;;;;4.30;3.90;;;7.20;99.90;;;;;;5018075;28;20554;-71
2021/12/04 11:38:51;;;;;;;4.70;4.20;;;7.30;99.90;;;;;;5032507;28;20419;-72
2021/12/04 11:41:25;;;;;;;4.17;3.87;;;7.20;99.90;;;;;;5033439;28;20424;-72
2021/12/04 11:43:56;;;;;;;4.63;4.23;;;7.00;99.90;;;;;;5046157;28;20565;-72
2021/12/04 11:46:30;;;;;;;4.47;4.07;;;6.90;99.90;;;;;;5021821;28;20501;-73
2021/12/04 11:49:06;;;;;;;3.90;3.60;;;6.90;99.90;;;;;;5032188;28;20540;-71
2021/12/04 11:51:32;;;;;;;5.03;4.53;;;6.80;99.90;;;;;;5032513;28;20408;-69
2021/12/04 11:53:57;;;;;;;7.77;6.00;;;6.60;99.90;;;;;;5030454;28;20448;-70
2021/12/04 11:56:27;;;;;;;4.83;4.33;;;6.60;99.90;;;;;;5022916;28;20618;-70
2021/12/04 11:58:53;;;;;;;3.70;3.40;;;6.50;99.90;;;;;;5030071;28;20185;-69
2021/12/04 12:01:32;;;;;;;4.17;3.80;;;6.50;99.90;;;;;;5030151;28;20475;-70
2021/12/04 12:04:03;;;;;;;5.17;3.57;;;6.50;99.90;;;;;;5030251;28;20542;-70
2021/12/04 12:06:33;;;;;;;4.00;3.70;;;6.50;99.90;;;;;;5027645;28;21243;-69
2021/12/04 12:09:04;;;;;;;4.03;3.73;;;6.70;99.90;;;;;;5030752;28;20495;-70
2021/12/04 12:11:29;;;;;;;4.43;4.03;;;6.70;99.90;;;;;;5032696;28;20414;-70
2021/12/04 12:14:11;;;;;;;4.17;3.77;;;6.80;99.90;;;;;;5031280;28;20480;-71
2021/12/04 12:16:46;;;;;;;4.10;3.80;;;6.80;99.90;;;;;;5028898;28;20629;-70
2021/12/04 12:19:25;;;;;;;4.50;4.10;;;6.80;99.90;;;;;;5029513;28;20930;-72
2021/12/04 12:22:00;;;;;;;4.93;4.43;;;6.90;99.90;;;;;;5017137;28;20424;-71
2021/12/04 12:27:22;;;;;;;4.23;3.83;;;7.20;99.90;;;;;;5024738;28;20544;-71
2021/12/04 12:33:22;;;;;;;4.40;4.00;;;7.00;99.90;;;;;;5031646;28;20503;-71
2021/12/04 12:36:13;;;;;;;4.57;4.17;;;7.00;99.90;;;;;;5030741;28;20421;-70
2021/12/04 12:38:53;;;;;;;4.07;3.77;;;7.10;99.90;;;;;;5024697;28;20428;-71
2021/12/04 12:41:39;;;;;;;4.20;3.90;;;7.20;99.90;;;;;;5031151;28;20428;-71
2021/12/04 12:44:18;;;;;;;4.30;4.00;;;7.30;99.90;;;;;;5013646;28;20453;-72
2021/12/04 12:46:48;;;;;;;5.33;4.30;;;7.40;99.90;;;;;;5030803;28;20839;-71
2021/12/04 12:49:28;;;;;;;4.57;4.17;;;7.40;99.90;;;;;;5031073;28;20442;-69
2021/12/04 12:51:58;;;;;;;4.20;3.80;;;7.30;99.90;;;;;;5024568;28;20423;-71
2021/12/04 12:54:38;;;;;;;4.23;3.90;;;7.40;99.90;;;;;;5031051;28;20401;-71
2021/12/04 12:57:08;;;;;;;3.77;3.47;;;7.50;99.90;;;;;;5029186;28;20433;-71
2021/12/04 13:13:54;;;;;;;3.23;3.03;;;7.70;99.90;;;;;;5019240;28;20417;-71
2021/12/04 13:16:23;;;;;;;3.13;2.90;;;7.60;99.90;;;;;;5030797;28;20430;-71
2021/12/04 13:18:56;;;;;;;4.23;3.93;;;7.50;99.90;;;;;;5032051;28;20427;-71
2021/12/04 13:21:24;;;;;;;3.40;3.10;;;7.40;99.90;;;;;;5035060;28;20452;-72
2021/12/04 13:23:55;;;;;;;3.50;3.17;;;7.20;99.90;;;;;;5017314;28;20425;-71
2021/12/04 13:26:33;;;;;;;3.50;3.20;;;7.30;99.90;;;;;;5034380;28;20848;-71
2021/12/04 13:29:01;;;;;;;3.07;2.87;;;7.30;99.90;;;;;;5034794;28;20477;-71
2021/12/04 13:31:28;;;;;;;3.20;3.00;;;7.40;99.90;;;;;;5035007;28;20467;-71
2021/12/04 13:33:54;;;;;;;3.87;3.57;;;7.40;99.90;;;;;;5033783;28;20479;-71
2021/12/04 13:36:23;;;;;;;3.90;3.60;;;7.30;99.90;;;;;;5034992;28;20422;-71
2021/12/04 13:39:10;;;;;;;3.50;3.20;;;7.30;99.90;;;;;;5036785;28;20422;-71
2021/12/04 13:41:38;;;;;;;3.73;3.40;;;7.30;99.90;;;;;;5037712;28;20410;-71
2021/12/04 13:44:07;;;;;;;4.10;3.80;;;7.30;99.90;;;;;;5037473;28;20914;-70
2021/12/04 13:46:48;;;;;;;3.60;3.30;;;7.40;99.90;;;;;;5036201;28;20445;-71
2021/12/04 13:49:26;;;;;;;4.27;3.90;;;7.30;99.90;;;;;;5034090;28;20787;-72
2021/12/04 13:51:57;;;;;;;3.63;3.33;;;7.30;99.90;;;;;;5034181;28;20430;-72
2021/12/04 13:54:28;;;;;;;4.43;4.03;;;7.40;99.90;;;;;;5034583;28;20939;-72
2021/12/04 13:56:54;;;;;;;4.20;3.90;;;7.40;99.90;;;;;;5035313;28;20536;-72
2021/12/04 13:59:25;;;;;;;4.40;4.00;;;7.40;99.90;;;;;;5035107;28;20963;-72
2021/12/04 14:01:51;;;;;;;4.70;4.30;;;7.40;99.90;;;;;;5018151;28;20176;-72
2021/12/04 14:04:17;;;;;;;6.03;5.07;;;7.40;99.90;;;;;;5034582;28;20453;-71
2021/12/04 14:06:54;;;;;;;4.90;4.40;;;7.40;99.90;;;;;;5033139;28;20537;-71
2021/12/04 14:09:21;;;;;;;4.43;4.13;;;7.40;99.90;;;;;;5041788;28;20448;-79
2021/12/04 14:11:47;;;;;;;4.63;4.23;;;7.50;99.90;;;;;;5044071;28;20425;-74
2021/12/04 14:14:16;;;;;;;5.23;4.73;;;7.40;99.90;;;;;;5034917;28;20498;-71
2021/12/04 14:16:44;;;;;;;4.60;4.20;;;7.30;99.90;;;;;;5025852;28;20795;-71
2021/12/04 14:19:23;;;;;;;4.83;3.73;;;7.20;99.90;;;;;;5013407;28;20437;-73
2021/12/04 14:22:01;;;;;;;4.90;4.30;;;7.10;99.90;;;;;;5035492;28;20456;-71
2021/12/04 14:24:42;;;;;;;4.43;4.13;;;7.20;99.90;;;;;;5034673;28;20518;-71
2021/12/04 14:27:10;;;;;;;4.60;4.20;;;7.20;99.90;;;;;;5027912;28;20470;-71
2021/12/04 14:29:41;;;;;;;4.20;3.90;;;7.20;99.90;;;;;;5033718;28;20470;-71
2021/12/04 14:32:08;;;;;;;4.80;4.40;;;7.20;99.90;;;;;;5033786;28;21109;-72
2021/12/04 14:34:34;;;;;;;4.97;4.47;;;7.20;99.90;;;;;;5034472;28;20429;-71
2021/12/04 14:37:16;;;;;;;3.90;3.60;;;7.20;99.90;;;;;;5033001;28;20447;-71
2021/12/04 14:39:49;;;;;;;4.17;3.77;;;7.20;99.90;;;;;;5021055;28;20782;-70
2021/12/04 14:42:27;;;;;;;3.90;3.60;;;7.20;99.90;;;;;;5037428;28;20475;-73
2021/12/04 14:45:05;;;;;;;4.67;4.27;;;7.10;99.90;;;;;;5018768;28;20496;-71
2021/12/04 14:47:46;;;;;;;3.80;3.57;;;7.00;99.90;;;;;;5036243;28;20583;-73
2021/12/04 14:50:15;;;;;;;4.40;4.00;;;7.10;99.90;;;;;;5019939;28;20438;-71
2021/12/04 14:52:41;;;;;;;4.17;3.87;;;7.10;99.90;;;;;;5028448;28;20507;-70
2021/12/04 14:55:16;;;;;;;5.43;4.57;;;7.00;99.90;;;;;;5034328;28;20449;-71
2021/12/04 14:57:42;;;;;;;4.87;4.47;;;6.90;99.90;;;;;;5017747;28;21091;-71
2021/12/04 15:00:16;;;;;;;5.83;4.47;;;6.90;99.90;;;;;;5033772;28;20464;-71
2021/12/04 15:02:56;;;;;;;4.00;3.70;;;7.00;99.90;;;;;;5032833;28;20543;-71
2021/12/04 15:05:36;;;;;;;4.63;4.33;;;7.00;99.90;;;;;;5032992;28;20468;-71
2021/12/04 15:08:16;;;;;;;4.20;3.80;;;7.00;99.90;;;;;;5033025;28;20438;-71
2021/12/04 15:10:46;;;;;;;12.03;8.33;;;7.10;99.90;;;;;;5035695;28;20775;-71
2021/12/04 15:13:20;;;;;;;9.37;7.97;;;6.90;99.90;;;;;;5021904;28;20463;-71
2021/12/04 15:15:47;;;;;;;9.60;7.60;;;6.90;99.90;;;;;;5017850;28;20422;-71
2021/12/04 15:18:15;;;;;;;6.50;5.40;;;6.80;99.90;;;;;;5032849;28;20468;-70
2021/12/04 15:21:03;;;;;;;8.73;6.83;;;6.80;99.90;;;;;;5033302;28;20433;-72
2021/12/04 15:23:30;;;;;;;8.00;6.77;;;6.70;99.90;;;;;;5026838;28;20426;-71
2021/12/04 15:25:59;;;;;;;9.67;6.03;;;6.60;99.90;;;;;;5032946;28;20548;-71
2021/12/04 15:28:29;;;;;;;5.80;5.20;;;6.60;99.90;;;;;;5054914;22;20488;-70
2021/12/04 15:30:58;;;;;;;7.80;5.53;;;6.60;99.90;;;;;;5060177;28;20404;-70
2021/12/04 15:33:35;;;;;;;5.40;4.90;;;6.60;99.90;;;;;;5061151;28;20765;-69
2021/12/04 15:36:03;;;;;;;4.33;4.03;;;6.70;99.90;;;;;;5055477;28;20413;-70
2021/12/04 15:38:41;;;;;;;3.77;3.47;;;6.60;99.90;;;;;;5036669;28;20437;-70
2021/12/04 15:41:19;;;;;;;3.90;3.57;;;6.50;99.90;;;;;;5051703;28;20499;-70
2021/12/04 15:44:24;;;;;;;4.80;4.40;;;6.50;99.90;;;;;;5060221;28;20424;-71
2021/12/04 15:55:10;;;;;;;4.13;3.83;;;6.40;99.90;;;;;;5065718;28;20452;-70
2021/12/04 15:57:36;;;;;;;3.37;3.17;;;6.40;99.90;;;;;;5055071;28;20452;-70